createdAt,value
2019-02-11T00:01:30.513Z,94.92
2019-02-11T00:07:43.501Z,95.36
2019-02-11T00:14:09.107Z,94.83
2019-02-11T00:24:13.774Z,95.22
2019-02-11T00:30:41.136Z,95.17
2019-02-11T00:37:22.112Z,95.04
2019-02-11T00:43:49.952Z,95.36
2019-02-11T00:50:15.518Z,94.60
2019-02-11T00:56:54.474Z,94.97
2019-02-11T01:03:20.326Z,94.43
2019-02-11T01:09:11.767Z,93.71
2019-02-11T01:15:39.674Z,92.72
2019-02-11T01:25:51.625Z,93.80
2019-02-11T01:32:30.874Z,93.62
2019-02-11T01:38:56.694Z,93.66
2019-02-11T01:45:22.281Z,93.60
2019-02-11T01:51:59.184Z,93.59
2019-02-11T01:58:27.084Z,93.73
2019-02-11T02:04:54.991Z,93.39
2019-02-11T02:10:58.712Z,93.45
2019-02-11T02:17:36.438Z,94.31
2019-02-11T02:27:41.429Z,92.71
2019-02-11T02:34:10.149Z,93.49
2019-02-11T02:40:40.363Z,92.87
2019-02-11T02:47:22.342Z,93.17
2019-02-11T02:53:46.951Z,93.36
2019-02-11T03:00:13.617Z,93.92
2019-02-11T03:06:52.575Z,92.58
2019-02-11T03:13:20.774Z,92.22
2019-02-11T03:19:48.376Z,92.65
2019-02-11T03:30:02.702Z,91.46
2019-02-11T03:36:30.535Z,92.54
2019-02-11T03:43:09.231Z,92.94
2019-02-11T03:49:35.078Z,92.84
2019-02-11T03:56:00.926Z,92.01
2019-02-11T04:02:41.938Z,91.80
2019-02-11T04:08:55.792Z,92.72
2019-02-11T04:15:21.613Z,92.38
2019-02-11T04:21:47.202Z,92.44
2019-02-11T04:31:11.633Z,93.20
2019-02-11T04:37:50.590Z,93.68
2019-02-11T04:44:18.815Z,93.09
2019-02-11T04:50:42.618Z,93.52
2019-02-11T04:57:21.566Z,94.19
2019-02-11T05:03:45.361Z,94.20
2019-02-11T05:09:34.823Z,94.23
2019-02-11T05:15:58.624Z,95.12
2019-02-11T05:22:37.572Z,94.19
2019-02-11T05:32:57.720Z,93.31
2019-02-11T05:39:23.530Z,93.26
2019-02-11T05:45:49.353Z,93.29
2019-02-11T05:52:14.898Z,93.49
2019-02-11T05:58:42.792Z,93.15
2019-02-11T06:05:12.743Z,92.85
2019-02-11T06:11:02.134Z,93.50
2019-02-11T06:17:39.046Z,93.09
2019-02-11T06:24:06.097Z,94.15
2019-02-11T06:34:07.838Z,94.65
2019-02-11T06:40:34.881Z,94.80
2019-02-11T06:47:00.705Z,94.63
2019-02-11T06:53:41.360Z,94.55
2019-02-11T07:00:09.257Z,94.29
2019-02-11T07:06:37.164Z,94.50
2019-02-11T07:12:41.962Z,94.27
2019-02-11T07:19:09.611Z,94.89
2019-02-11T07:25:38.324Z,95.52
2019-02-11T07:35:39.216Z,96.41
2019-02-11T07:42:28.422Z,97.57
2019-02-11T07:49:05.580Z,96.09
2019-02-11T07:55:31.171Z,94.53
2019-02-11T08:01:57.024Z,94.53
2019-02-11T08:08:38.193Z,94.21
2019-02-11T08:15:05.027Z,93.43
2019-02-11T08:21:30.840Z,93.55
2019-02-11T08:27:56.659Z,93.69
2019-02-11T08:37:25.292Z,93.89
2019-02-11T08:44:04.242Z,92.83
2019-02-11T08:50:32.083Z,91.72
2019-02-11T08:56:59.681Z,91.13
2019-02-11T09:03:23.490Z,90.68
2019-02-11T09:09:26.313Z,90.24
2019-02-11T09:15:55.399Z,89.77
2019-02-11T09:22:19.739Z,89.44
2019-02-11T09:29:04.834Z,90.31
2019-02-11T09:39:18.837Z,90.00
2019-02-11T09:45:44.686Z,90.04
2019-02-11T09:52:08.488Z,89.68
2019-02-11T09:58:33.493Z,89.92
2019-02-11T10:05:12.440Z,89.24
2019-02-11T10:11:02.692Z,88.89
2019-02-11T10:17:30.081Z,88.24
2019-02-11T10:24:08.702Z,88.38
2019-02-11T10:30:36.532Z,87.96
2019-02-11T10:40:39.154Z,87.63
2019-02-11T10:47:05.327Z,87.48
2019-02-11T10:53:31.141Z,87.85
2019-02-11T11:00:13.120Z,87.85
2019-02-11T11:06:48.770Z,88.62
2019-02-11T11:12:40.527Z,89.04
2019-02-11T11:19:19.171Z,89.93
2019-02-11T11:25:47.068Z,90.38
2019-02-11T11:32:17.833Z,90.05
2019-02-11T11:42:17.907Z,90.06
2019-02-11T11:48:46.627Z,89.58
2019-02-11T11:54:48.305Z,88.72
2019-02-11T12:01:18.885Z,88.39
2019-02-11T12:07:41.208Z,86.63
2019-02-11T12:14:12.504Z,87.29
2019-02-11T12:20:50.017Z,87.13
2019-02-11T12:27:15.857Z,91.03
2019-02-11T12:33:05.307Z,94.24
2019-02-11T12:43:18.157Z,95.75
2019-02-11T12:49:55.070Z,97.98
2019-02-11T12:56:26.164Z,97.84
2019-02-11T13:02:50.984Z,96.00
2019-02-11T13:09:34.981Z,94.58
2019-02-11T13:16:02.842Z,94.45
2019-02-11T13:22:31.353Z,92.08
2019-02-11T13:28:59.513Z,91.42
2019-02-11T13:35:36.443Z,91.93
2019-02-11T13:42:04.055Z,91.38
2019-02-11T13:48:33.782Z,91.10
2019-02-11T13:54:58.949Z,89.90
2019-02-11T14:01:26.795Z,89.40
2019-02-11T14:08:01.700Z,89.25
2019-02-11T14:18:18.832Z,87.06
2019-02-11T14:24:45.328Z,86.28
2019-02-11T14:31:24.591Z,86.98
2019-02-11T14:37:54.509Z,84.74
2019-02-11T14:44:22.950Z,83.45
2019-02-11T14:51:01.901Z,81.64
2019-02-11T14:57:31.855Z,81.56
2019-02-11T15:03:57.925Z,82.99
2019-02-11T15:10:00.515Z,81.75
2019-02-11T15:20:05.505Z,81.60
2019-02-11T15:26:48.253Z,80.71
2019-02-11T15:33:19.830Z,81.57
2019-02-11T15:39:47.219Z,82.36
2019-02-11T15:46:24.133Z,82.77
2019-02-11T15:52:49.956Z,82.84
2019-02-11T15:59:17.564Z,83.03
2019-02-11T16:05:54.473Z,82.94
2019-02-11T16:12:22.378Z,83.55
2019-02-11T16:22:38.419Z,84.52
2019-02-11T16:29:04.273Z,84.38
2019-02-11T16:35:32.323Z,84.41
2019-02-11T16:42:10.262Z,85.17
2019-02-11T16:48:00.518Z,86.00
2019-02-11T16:54:27.570Z,85.50
2019-02-11T17:01:06.515Z,84.34
2019-02-11T17:07:41.667Z,85.40
2019-02-11T17:14:02.198Z,86.54
2019-02-11T17:24:07.188Z,85.83
2019-02-11T17:30:37.698Z,88.37
2019-02-11T17:36:41.437Z,86.86
2019-02-11T17:43:07.275Z,86.31
2019-02-11T17:49:31.081Z,86.47
2019-02-11T17:55:54.886Z,87.60
2019-02-11T18:02:35.035Z,86.83
2019-02-11T18:09:04.611Z,86.46
2019-02-11T18:15:28.692Z,86.48
2019-02-11T18:25:43.799Z,87.01
2019-02-11T18:32:23.412Z,87.72
2019-02-11T18:38:18.275Z,87.69
2019-02-11T18:44:45.083Z,88.11
2019-02-11T18:51:12.246Z,89.12
2019-02-11T18:57:51.656Z,89.09
2019-02-11T19:04:22.420Z,89.89
2019-02-11T19:10:52.377Z,89.71
2019-02-11T19:17:29.537Z,89.74
2019-02-11T19:27:34.531Z,90.55
2019-02-11T19:34:02.166Z,90.87
2019-02-11T19:40:26.174Z,91.49
2019-02-11T19:47:07.801Z,92.57
2019-02-11T19:53:38.966Z,92.39
2019-02-11T20:00:05.636Z,93.43
2019-02-11T20:06:33.685Z,95.11
2019-02-11T20:13:11.264Z,96.97
2019-02-11T20:19:37.444Z,98.55
2019-02-11T20:29:40.052Z,98.68
2019-02-11T20:36:10.005Z,98.35
2019-02-11T20:42:49.233Z,99.00
2019-02-11T20:49:17.076Z,99.74
2019-02-11T20:55:44.946Z,100.00
2019-02-11T21:02:24.529Z,100.00
2019-02-11T21:08:50.704Z,100.00
2019-02-11T21:14:40.161Z,100.00
2019-02-11T21:21:05.977Z,100.00
2019-02-11T21:31:22.495Z,100.00
2019-02-11T21:38:02.685Z,99.88
2019-02-11T21:44:28.864Z,99.38
2019-02-11T21:47:26.301Z,99.36
2019-02-11T21:53:27.991Z,99.65
2019-02-11T21:59:55.042Z,99.95
2019-02-11T22:06:20.858Z,100.00
2019-02-11T22:12:59.462Z,99.79
2019-02-11T22:19:25.641Z,100.00
2019-02-11T22:25:51.442Z,100.00
2019-02-11T22:32:18.282Z,100.00
2019-02-11T22:38:55.970Z,100.00
2019-02-11T22:45:24.686Z,100.00
2019-02-11T22:55:03.457Z,100.00
2019-02-11T23:01:31.633Z,100.00
2019-02-11T23:08:10.584Z,100.00
2019-02-11T23:14:38.212Z,99.98
2019-02-11T23:21:04.883Z,100.00
2019-02-11T23:27:31.076Z,99.95
2019-02-11T23:34:08.873Z,99.86
2019-02-11T23:40:35.843Z,99.91
2019-02-11T23:47:03.683Z,99.90
2019-02-11T23:56:30.295Z,100.00
